Time;durP1;ratioP1;P1;durP2;ratioP2;P2;SDS_P1;SDS_P2;PMS_P1;PMS_P2;Temp;Humidity;BMP_temperature;BMP_pressure;BME280_temperature;BME280_humidity;BME280_pressure;Samples;Min_cycle;Max_cycle;Signal;HPM_P1;HPM_P2
2022/12/09 00:02:00;;;;;;;27.95;16.00;;;;;;;-2.38;93.92;98816.28;1701745;83;21781;-76
2022/12/09 00:04:27;;;;;;;25.95;14.95;;;;;;;-2.32;93.93;98816.25;1709012;81;21045;-76
2022/12/09 00:06:53;;;;;;;29.03;15.23;;;;;;;-2.53;94.25;98816.84;1707764;82;21054;-76
2022/12/09 00:09:20;;;;;;;27.80;15.80;;;;;;;-2.65;94.39;98822.08;1720341;83;21006;-76
2022/12/09 00:11:46;;;;;;;25.72;15.43;;;;;;;-2.66;94.78;98824.23;1710563;82;21596;-76
2022/12/09 00:14:13;;;;;;;23.95;14.85;;;;;;;-2.60;95.01;98821.61;1706337;82;21014;-74
2022/12/09 00:16:39;;;;;;;20.08;12.23;;;;;;;-2.59;95.02;98825.85;1716132;83;21065;-74
2022/12/09 00:19:06;;;;;;;26.62;14.75;;;;;;;-2.56;94.59;98825.83;1708262;83;21085;-75
2022/12/09 00:21:34;;;;;;;22.48;14.25;;;;;;;-2.60;94.21;98839.50;1705531;82;21517;-76
2022/12/09 00:24:05;;;;;;;23.35;15.25;;;;;;;-2.65;93.96;98825.91;1707025;83;21489;-76
2022/12/09 00:26:33;;;;;;;18.40;10.98;;;;;;;-2.67;94.16;98829.34;1703114;82;20970;-77
2022/12/09 00:29:01;;;;;;;28.95;15.85;;;;;;;-2.77;93.83;98829.86;1711280;82;20994;-76
2022/12/09 00:31:32;;;;;;;22.58;13.62;;;;;;;-2.82;93.88;98825.20;1707570;83;21077;-75
2022/12/09 00:34:02;;;;;;;21.37;13.70;;;;;;;-2.88;93.76;98827.81;1707837;83;21037;-75
2022/12/09 00:36:29;;;;;;;24.77;14.35;;;;;;;-2.94;93.79;98836.34;1704891;82;20990;-75
2022/12/09 00:38:58;;;;;;;22.32;13.13;;;;;;;-2.93;94.01;98828.68;1697382;82;21029;-76
2022/12/09 00:41:26;;;;;;;19.35;12.68;;;;;;;-2.96;93.97;98836.37;1717997;82;21361;-76
2022/12/09 00:43:53;;;;;;;17.52;11.65;;;;;;;-3.04;93.84;98838.12;1713094;82;21055;-74
2022/12/09 00:46:20;;;;;;;19.87;11.75;;;;;;;-3.13;94.18;98840.75;1702174;82;21131;-76
2022/12/09 00:48:47;;;;;;;15.55;10.10;;;;;;;-3.45;94.40;98843.46;1708034;82;21014;-76
2022/12/09 00:51:18;;;;;;;19.95;11.57;;;;;;;-3.52;94.43;98842.66;1706777;82;21036;-75
2022/12/09 00:53:46;;;;;;;17.07;10.88;;;;;;;-3.54;94.30;98852.02;1702759;83;21033;-76
2022/12/09 00:56:13;;;;;;;16.80;11.48;;;;;;;-3.64;94.40;98861.83;1710951;82;21026;-75
2022/12/09 00:58:40;;;;;;;16.97;10.65;;;;;;;-3.64;94.29;98854.17;1707528;82;21540;-75
2022/12/09 01:01:06;;;;;;;23.60;13.85;;;;;;;-3.80;94.33;98856.38;1716018;83;21065;-76
2022/12/09 01:03:33;;;;;;;16.70;10.83;;;;;;;-3.74;94.54;98861.46;1708651;82;21032;-76
2022/12/09 01:05:59;;;;;;;15.53;9.83;;;;;;;-3.85;94.58;98857.23;1712892;82;21065;-75
2022/12/09 01:08:26;;;;;;;13.35;9.45;;;;;;;-3.90;94.76;98848.73;1712249;82;21086;-76
2022/12/09 01:10:52;;;;;;;14.93;9.83;;;;;;;-3.92;94.42;98860.67;1713018;82;21043;-74
2022/12/09 01:13:19;;;;;;;16.95;9.83;;;;;;;-4.01;94.25;98850.47;1701521;82;21026;-76
2022/12/09 01:15:46;;;;;;;16.82;11.05;;;;;;;-4.02;94.29;98850.06;1701433;83;21585;-75
2022/12/09 01:18:12;;;;;;;11.75;7.58;;;;;;;-4.03;94.30;98853.48;1715111;82;21568;-76
2022/12/09 01:20:40;;;;;;;11.47;7.73;;;;;;;-4.02;94.24;98856.44;1713310;82;21070;-75
2022/12/09 01:23:06;;;;;;;10.88;6.67;;;;;;;-4.07;94.06;98855.59;1721348;82;21152;-74
2022/12/09 01:25:33;;;;;;;10.17;7.30;;;;;;;-4.15;93.80;98849.66;1716652;83;21169;-74
2022/12/09 01:27:59;;;;;;;7.75;6.33;;;;;;;-4.28;93.67;98852.25;1708783;82;21742;-76
2022/12/09 01:30:26;;;;;;;8.57;6.40;;;;;;;-4.40;93.61;98851.40;1714356;82;21573;-75
2022/12/09 01:32:53;;;;;;;9.10;6.75;;;;;;;-4.45;93.46;98851.83;1704432;83;21065;-75
2022/12/09 01:35:19;;;;;;;10.45;7.40;;;;;;;-4.57;93.33;98856.51;1712018;83;21084;-74
2022/12/09 01:37:46;;;;;;;9.15;6.35;;;;;;;-4.69;93.10;98853.55;1709868;82;20982;-76
2022/12/09 01:40:16;;;;;;;9.60;7.03;;;;;;;-4.80;93.07;98849.72;1707454;83;20994;-74
2022/12/09 01:42:42;;;;;;;10.95;7.55;;;;;;;-5.03;93.05;98859.05;1720066;83;21009;-74
2022/12/09 01:45:29;;;;;;;11.23;7.73;;;;;;;-5.12;93.08;98856.49;1723615;82;21019;-75
2022/12/09 01:48:02;;;;;;;;;;;;;;;-5.17;93.28;98864.95;1710253;82;20955;-74
2022/12/09 01:50:30;;;;;;;11.93;7.78;;;;;;;-5.25;93.01;98861.53;1710831;82;20141;-76
2022/12/09 01:52:57;;;;;;;12.98;9.20;;;;;;;-5.35;93.14;98854.72;1709328;83;20983;-76
2022/12/09 01:55:24;;;;;;;15.15;9.60;;;;;;;-5.41;92.89;98854.70;1709956;83;21037;-75
2022/12/09 01:57:51;;;;;;;13.22;8.95;;;;;;;-5.54;93.21;98852.98;1708693;83;21034;-75
2022/12/09 02:00:19;;;;;;;;;;;;;;;-5.54;93.13;98852.98;1718046;82;21018;-75
2022/12/09 02:02:48;;;;;;;10.13;7.12;;;;;;;-5.69;93.02;98846.98;1716551;82;20160;-76
2022/12/09 02:05:15;;;;;;;10.80;7.60;;;;;;;-5.72;92.65;98850.78;1714507;83;22315;-76
2022/12/09 02:07:42;;;;;;;10.25;7.35;;;;;;;-5.84;92.46;98857.09;1715884;82;20974;-76
2022/12/09 02:10:13;;;;;;;14.38;9.35;;;;;;;-5.91;92.57;98854.09;1713070;82;22334;-75
2022/12/09 02:13:09;;;;;;;15.00;10.18;;;;;;;-5.97;92.64;98855.36;1714297;83;21037;-73
2022/12/09 02:15:50;;;;;;;16.03;10.07;;;;;;;-5.97;92.81;98859.17;1702197;83;21108;-75
2022/12/09 02:18:37;;;;;;;13.58;8.50;;;;;;;-5.97;92.86;98856.63;1702078;82;21056;-75
2022/12/09 02:21:12;;;;;;;16.75;10.15;;;;;;;-6.04;92.74;98853.65;1707198;83;21034;-75
2022/12/09 02:24:01;;;;;;;15.65;9.78;;;;;;;-6.10;92.80;98848.95;1706955;82;21627;-75
2022/12/09 02:26:33;;;;;;;17.82;9.98;;;;;;;-6.16;92.80;98847.66;1701077;82;20966;-76
2022/12/09 02:29:23;;;;;;;16.27;9.63;;;;;;;-6.22;92.80;98847.59;1704984;83;20982;-76
2022/12/09 02:32:14;;;;;;;16.17;9.63;;;;;;;-6.22;92.81;98852.68;1702537;82;21532;-75
2022/12/09 02:34:49;;;;;;;14.33;8.05;;;;;;;-6.29;92.70;98856.04;1706650;83;21493;-74
2022/12/09 02:37:24;;;;;;;15.98;9.18;;;;;;;-6.33;92.69;98854.30;1700145;82;21109;-74
2022/12/09 02:40:22;;;;;;;12.28;7.75;;;;;;;-6.38;92.60;98863.61;1712889;83;21525;-75
2022/12/09 02:42:50;;;;;;;12.23;8.05;;;;;;;-6.57;92.88;98866.00;1672595;84;21543;-74
2022/12/09 02:45:20;;;;;;;13.22;8.80;;;;;;;-6.55;92.59;98873.65;1647912;86;21001;-76
2022/12/09 02:47:50;;;;;;;13.65;8.53;;;;;;;-6.61;92.71;98874.45;1646532;86;21072;-75
2022/12/09 02:50:22;;;;;;;13.95;8.58;;;;;;;-6.76;92.61;98867.96;1625823;87;21066;-76
2022/12/09 02:52:52;;;;;;;11.93;7.80;;;;;;;-6.90;92.55;98865.30;1646282;86;21727;-75
2022/12/09 02:55:22;;;;;;;14.33;7.80;;;;;;;-7.00;92.23;98868.19;1640601;86;21029;-74
2022/12/09 02:57:53;;;;;;;17.32;9.53;;;;;;;-7.13;92.11;98881.59;1627834;87;21038;-75
2022/12/09 03:00:20;;;;;;;21.23;11.68;;;;;;;-7.26;91.99;98881.02;1640783;86;21007;-76
2022/12/09 03:02:50;;;;;;;23.62;12.13;;;;;;;-7.37;92.02;98882.59;1617280;86;21076;-76
2022/12/09 03:05:34;;;;;;;24.92;12.15;;;;;;;-7.56;91.77;98877.33;1637667;86;21056;-76
2022/12/09 03:08:38;;;;;;;24.85;11.03;;;;;;;-7.78;91.46;98880.02;1651659;86;21014;-75
2022/12/09 03:11:16;;;;;;;15.08;8.78;;;;;;;-7.95;91.53;98874.73;1657008;86;21044;-75
2022/12/09 03:14:11;;;;;;;12.33;7.45;;;;;;;-8.12;91.50;98880.00;1652887;84;21582;-75
2022/12/09 03:16:57;;;;;;;24.72;9.25;;;;;;;-8.26;91.41;98880.19;1626040;87;21609;-75
2022/12/09 03:19:38;;;;;;;24.57;11.67;;;;;;;-8.33;91.74;98880.11;1672696;84;21046;-76
2022/12/09 03:22:10;;;;;;;18.37;10.60;;;;;;;-8.49;91.39;98880.73;1667803;85;21375;-75
2022/12/09 03:25:00;;;;;;;20.52;10.85;;;;;;;-8.55;91.57;98876.85;1667841;85;21012;-75
2022/12/09 03:27:32;;;;;;;19.73;9.10;;;;;;;-8.55;91.46;98876.85;1679743;84;21003;-75
2022/12/09 03:30:02;;;;;;;18.40;9.25;;;;;;;-8.57;91.44;98872.17;1649062;86;21673;-76
2022/12/09 03:32:31;;;;;;;17.50;9.65;;;;;;;-8.60;91.40;98882.25;1658704;84;21029;-75
2022/12/09 03:35:02;;;;;;;22.60;10.43;;;;;;;-8.71;91.23;98883.77;1654933;84;21503;-75
2022/12/09 03:37:31;;;;;;;19.77;10.45;;;;;;;-8.78;91.11;98882.82;1653375;84;21043;-75
2022/12/09 03:40:00;;;;;;;19.77;10.18;;;;;;;-8.85;91.07;98889.86;1684957;84;21012;-74
2022/12/09 03:42:32;;;;;;;20.57;10.18;;;;;;;-8.94;91.02;98889.29;1714395;82;21497;-75
2022/12/09 03:45:06;;;;;;;22.15;8.90;;;;;;;-8.95;90.97;98887.60;1703487;82;20998;-75
2022/12/09 03:47:33;;;;;;;22.15;11.28;;;;;;;-8.97;90.95;98882.92;1708953;82;21390;-75
2022/12/09 03:49:59;;;;;;;22.15;10.08;;;;;;;-9.01;90.84;98884.97;1700975;82;21608;-75
2022/12/09 03:52:43;;;;;;;21.20;10.67;;;;;;;-9.06;90.83;98889.09;1711098;82;20979;-74
2022/12/09 03:55:35;;;;;;;17.05;8.68;;;;;;;-9.05;90.91;98890.78;1708492;83;21521;-74
2022/12/09 03:58:05;;;;;;;15.78;8.30;;;;;;;-9.09;91.08;98889.04;1712041;82;21109;-74
2022/12/09 04:00:38;;;;;;;18.55;8.73;;;;;;;-9.06;91.30;98892.47;1711459;83;21610;-74
2022/12/09 04:03:06;;;;;;;13.88;8.10;;;;;;;-9.02;91.18;98895.89;1703348;83;20981;-75
2022/12/09 04:05:33;;;;;;;14.90;7.47;;;;;;;-9.01;91.41;98895.94;1706763;83;21053;-75
2022/12/09 04:08:00;;;;;;;14.40;7.43;;;;;;;-8.94;91.52;98896.87;1709835;82;21566;-75
2022/12/09 04:10:26;;;;;;;13.83;6.50;;;;;;;-8.90;91.54;98893.59;1702101;83;21478;-75
2022/12/09 04:12:53;;;;;;;17.40;8.47;;;;;;;-8.88;91.52;98891.92;1701407;82;21090;-75
2022/12/09 04:15:19;;;;;;;13.17;7.53;;;;;;;-8.92;91.52;98892.70;1707444;83;20994;-73
2022/12/09 04:17:46;;;;;;;15.27;7.47;;;;;;;-8.88;91.69;98891.92;1698025;83;21010;-74
2022/12/09 04:20:13;;;;;;;14.75;7.62;;;;;;;-8.84;91.76;98900.02;1711962;82;21133;-75
2022/12/09 04:22:39;;;;;;;14.40;8.75;;;;;;;-8.80;91.80;98895.44;1719297;82;21131;-75
2022/12/09 04:25:07;;;;;;;17.23;9.10;;;;;;;-8.73;91.95;98893.03;1700168;83;21533;-74
2022/12/09 04:27:33;;;;;;;23.42;10.65;;;;;;;-8.69;91.98;98898.56;1706050;83;21105;-75
2022/12/09 04:30:00;;;;;;;16.97;8.27;;;;;;;-8.63;92.06;98892.33;1706013;82;21157;-75
2022/12/09 04:32:29;;;;;;;23.63;9.70;;;;;;;-8.59;92.14;98894.09;1712310;82;21135;-75
2022/12/09 04:34:55;;;;;;;22.42;9.48;;;;;;;-8.60;92.15;98904.64;1717570;82;21077;-75
2022/12/09 04:37:22;;;;;;;22.97;10.37;;;;;;;-8.59;92.14;98905.48;1707168;83;21442;-75
2022/12/09 04:39:48;;;;;;;30.48;13.32;;;;;;;-8.59;92.16;98901.70;1719374;82;21023;-74
2022/12/09 04:42:15;;;;;;;27.23;11.83;;;;;;;-8.55;92.21;98917.35;1720752;83;21049;-74
2022/12/09 04:44:43;;;;;;;21.20;11.27;;;;;;;-8.52;92.31;98919.93;1721459;83;21372;-74
2022/12/09 04:47:09;;;;;;;20.32;10.15;;;;;;;-8.52;92.25;98916.13;1698917;83;20998;-74
2022/12/09 04:49:36;;;;;;;28.90;11.93;;;;;;;-8.46;92.19;98925.08;1713829;82;21030;-75
2022/12/09 04:52:03;;;;;;;25.60;11.43;;;;;;;-8.40;92.09;98920.14;1718495;83;21105;-75
2022/12/09 04:54:29;;;;;;;23.53;9.23;;;;;;;-8.53;92.22;98924.56;1714370;83;20946;-75
2022/12/09 04:56:56;;;;;;;22.00;9.43;;;;;;;-8.42;92.44;98928.13;1723591;83;21352;-75
2022/12/09 04:59:22;;;;;;;22.15;9.93;;;;;;;-8.31;92.40;98928.68;1699031;82;21036;-75
2022/12/09 05:01:49;;;;;;;19.27;9.40;;;;;;;-8.30;92.35;98926.16;1702064;83;22379;-75
2022/12/09 05:04:15;;;;;;;24.90;10.13;;;;;;;-8.29;92.03;98924.47;1712477;82;21035;-75
2022/12/09 05:06:42;;;;;;;23.57;9.90;;;;;;;-8.49;92.15;98923.77;1715178;82;20998;-75
2022/12/09 05:09:13;;;;;;;23.07;8.90;;;;;;;-8.39;92.21;98918.04;1713719;83;20982;-75
2022/12/09 05:11:39;;;;;;;18.00;8.58;;;;;;;-8.31;92.15;98924.88;1713471;83;21084;-75
2022/12/09 05:14:06;;;;;;;16.87;8.07;;;;;;;-8.41;92.00;98927.28;1723527;82;21051;-75
2022/12/09 05:16:33;;;;;;;19.83;9.70;;;;;;;-8.45;92.03;98929.34;1719725;83;21134;-75
2022/12/09 05:18:59;;;;;;;24.95;12.07;;;;;;;-8.47;91.95;98932.25;1720805;82;21062;-75
2022/12/09 05:21:27;;;;;;;21.50;11.38;;;;;;;-8.48;92.01;98934.36;1716664;82;21100;-75
2022/12/09 05:23:53;;;;;;;27.22;12.25;;;;;;;-8.47;92.09;98937.31;1712931;83;21003;-75
2022/12/09 05:26:22;;;;;;;27.93;10.63;;;;;;;-8.49;92.13;98933.05;1714086;82;21036;-75
2022/12/09 05:28:50;;;;;;;21.23;13.08;;;;;;;-8.46;92.29;98944.07;1716029;82;20982;-75
2022/12/09 05:31:20;;;;;;;24.60;13.08;;;;;;;-8.37;92.39;98936.61;1716425;82;20934;-75
2022/12/09 05:33:48;;;;;;;27.00;13.50;;;;;;;-8.29;92.46;98939.66;1709541;82;21032;-75
2022/12/09 05:36:19;;;;;;;22.75;11.95;;;;;;;-8.27;92.40;98932.53;1702177;83;20942;-75
2022/12/09 05:38:47;;;;;;;24.92;11.65;;;;;;;-8.23;92.48;98930.88;1709147;82;21025;-75
2022/12/09 05:41:13;;;;;;;22.60;10.38;;;;;;;-8.19;92.49;98932.23;1697802;83;21076;-75
2022/12/09 05:43:40;;;;;;;22.77;12.00;;;;;;;-8.16;92.51;98936.49;1693424;83;20992;-75
2022/12/09 05:46:07;;;;;;;25.80;11.37;;;;;;;-8.11;92.52;98938.69;1695895;82;20950;-75
2022/12/09 05:48:35;;;;;;;25.82;11.95;;;;;;;-8.09;92.54;98931.97;1690290;83;20977;-75
2022/12/09 05:51:04;;;;;;;;;;;;;;;-8.08;92.52;98937.45;1694034;82;21041;-75
2022/12/09 05:53:31;;;;;;;21.62;10.25;;;;;;;-8.11;92.35;98928.55;1692123;83;20151;-75
2022/12/09 05:55:58;;;;;;;22.77;9.23;;;;;;;-8.20;92.49;98928.42;1691218;83;21028;-75
2022/12/09 05:58:25;;;;;;;20.53;12.33;;;;;;;-8.18;92.42;98931.81;1689728;83;20974;-75
2022/12/09 06:00:55;;;;;;;21.40;12.00;;;;;;;-8.17;92.49;98931.84;1710415;82;22337;-75
2022/12/09 06:03:21;;;;;;;26.60;12.85;;;;;;;-8.14;92.61;98929.36;1715183;82;20994;-75
2022/12/09 06:05:47;;;;;;;;;;;;;;;-8.08;92.73;98941.27;1703239;82;21019;-75
2022/12/09 06:08:14;;;;;;;14.83;8.58;;;;;;;-8.02;92.79;98937.96;1668267;84;20109;-75
2022/12/09 06:10:41;;;;;;;26.75;13.58;;;;;;;-7.96;92.84;98943.95;1689946;82;21013;-75
2022/12/09 06:13:07;;;;;;;31.10;15.63;;;;;;;-7.86;93.01;98946.64;1690319;83;21092;-75
2022/12/09 06:15:35;;;;;;;25.30;13.83;;;;;;;-7.75;92.99;98946.38;1692910;83;21049;-75
2022/12/09 06:18:02;;;;;;;29.65;14.65;;;;;;;-7.74;92.75;98952.72;1694808;82;20958;-75
2022/12/09 06:20:29;;;;;;;22.37;11.28;;;;;;;-7.71;92.74;98946.84;1700782;82;21080;-75
2022/12/09 06:22:55;;;;;;;18.45;10.80;;;;;;;-7.64;92.88;98956.24;1693226;82;21008;-75
2022/12/09 06:25:22;;;;;;;22.13;11.43;;;;;;;-7.58;93.07;98948.70;1692572;82;20950;-75
2022/12/09 06:27:50;;;;;;;23.80;11.57;;;;;;;-7.50;93.22;98953.47;1707767;83;21042;-75
2022/12/09 06:30:17;;;;;;;21.60;10.25;;;;;;;-7.48;93.21;98953.08;1699315;82;21150;-75
2022/12/09 06:32:43;;;;;;;20.92;10.85;;;;;;;-7.46;93.19;98961.53;1704866;83;21109;-75
2022/12/09 06:35:10;;;;;;;24.47;12.25;;;;;;;-7.49;92.98;98953.89;1707003;82;21042;-75
2022/12/09 06:37:36;;;;;;;24.40;13.10;;;;;;;-7.54;92.91;98952.97;1694325;82;20962;-75
2022/12/09 06:40:05;;;;;;;26.80;11.63;;;;;;;-7.59;92.92;98957.13;1704367;82;21107;-75
2022/12/09 06:42:32;;;;;;;27.42;13.72;;;;;;;-7.57;92.98;98959.27;1701871;82;21045;-75
2022/12/09 06:44:58;;;;;;;23.60;13.00;;;;;;;-7.50;93.19;98953.89;1718007;82;21037;-75
2022/12/09 06:47:27;;;;;;;35.92;18.37;;;;;;;-7.40;93.42;98952.30;1705640;83;21049;-75
2022/12/09 06:49:56;;;;;;;34.95;16.45;;;;;;;-7.30;93.52;98956.66;1703724;83;21034;-74
2022/12/09 06:52:23;;;;;;;38.30;18.62;;;;;;;-7.21;93.60;98946.61;1712181;82;20959;-74
2022/12/09 06:54:49;;;;;;;37.53;18.30;;;;;;;-7.12;93.55;98949.24;1714156;82;21053;-74
2022/12/09 06:57:16;;;;;;;36.73;18.40;;;;;;;-7.04;93.60;98944.27;1719371;82;21434;-75
2022/12/09 06:59:42;;;;;;;35.37;17.97;;;;;;;-6.98;93.65;98947.70;1719361;82;21070;-75
2022/12/09 07:02:10;;;;;;;27.37;14.60;;;;;;;-6.93;93.72;98945.22;1710225;82;21563;-75
2022/12/09 07:04:37;;;;;;;27.13;14.65;;;;;;;-6.90;93.73;98946.95;1699360;83;20966;-75
2022/12/09 07:07:03;;;;;;;32.93;16.23;;;;;;;-6.85;93.85;98947.84;1722115;82;21576;-75
2022/12/09 07:09:30;;;;;;;25.07;15.03;;;;;;;-6.79;93.85;98951.71;1722371;81;21570;-75
2022/12/09 07:11:57;;;;;;;35.38;16.82;;;;;;;-6.69;94.03;98962.40;1708639;82;21546;-75
2022/12/09 07:14:23;;;;;;;29.37;14.80;;;;;;;-6.61;94.02;98960.78;1713752;83;21006;-74
2022/12/09 07:16:50;;;;;;;37.37;17.70;;;;;;;-6.54;94.07;98962.53;1722229;82;20982;-75
2022/12/09 07:19:22;;;;;;;39.13;19.60;;;;;;;-6.46;94.10;98956.67;1720307;83;21038;-74
2022/12/09 07:21:50;;;;;;;33.38;18.40;;;;;;;-6.40;94.17;98956.72;1717727;83;21502;-74
2022/12/09 07:24:18;;;;;;;32.10;16.23;;;;;;;-6.30;94.27;98955.97;1720715;82;21497;-75
2022/12/09 07:26:44;;;;;;;27.52;15.20;;;;;;;-6.26;94.20;98958.95;1722524;82;21030;-75
2022/12/09 07:29:11;;;;;;;26.85;15.40;;;;;;;-6.22;94.16;98963.63;1720832;82;21548;-75
2022/12/09 07:31:38;;;;;;;32.90;16.73;;;;;;;-6.19;94.22;98967.06;1718005;82;21129;-74
2022/12/09 07:34:06;;;;;;;34.30;16.90;;;;;;;-6.11;94.23;98970.48;1723558;82;21005;-74
2022/12/09 07:36:35;;;;;;;48.13;20.02;;;;;;;-6.06;94.12;98969.69;1720927;82;21123;-75
2022/12/09 07:39:06;;;;;;;60.17;25.08;;;;;;;-6.04;94.07;98971.83;1720370;83;21541;-75
2022/12/09 07:41:33;;;;;;;52.48;25.10;;;;;;;-5.95;94.12;98977.81;1719487;82;21041;-74
2022/12/09 07:44:00;;;;;;;68.07;28.02;;;;;;;-5.89;94.23;98968.92;1717755;82;21096;-75
2022/12/09 07:46:26;;;;;;;60.57;25.63;;;;;;;-5.74;94.63;98966.92;1663884;84;21035;-75
2022/12/09 07:48:54;;;;;;;71.13;30.97;;;;;;;-5.54;94.97;98968.72;1662893;84;21053;-74
2022/12/09 07:51:23;;;;;;;66.92;29.67;;;;;;;-5.36;95.07;98967.52;1653415;86;21112;-74
2022/12/09 07:53:51;;;;;;;63.95;28.57;;;;;;;-5.21;95.20;98970.16;1663310;84;21024;-74
2022/12/09 07:56:17;;;;;;;42.23;21.95;;;;;;;-5.06;95.28;98963.41;1695816;82;21581;-74
2022/12/09 07:58:51;;;;;;;48.73;24.30;;;;;;;-4.99;95.03;98951.11;1692990;82;20985;-74
2022/12/09 08:01:21;;;;;;;37.48;18.55;;;;;;;-4.90;95.07;98965.16;1696604;83;21695;-75
2022/12/09 08:03:49;;;;;;;39.00;19.15;;;;;;;-4.74;95.14;98956.69;1690702;82;21584;-75
2022/12/09 08:06:19;;;;;;;38.15;18.17;;;;;;;-4.67;94.78;98959.27;1693661;82;21461;-76
2022/12/09 08:08:46;;;;;;;24.75;13.93;;;;;;;-4.67;94.89;98952.90;1715273;82;21517;-77
2022/12/09 08:11:26;;;;;;;26.17;14.85;;;;;;;-4.60;95.03;98959.25;1694985;83;21014;-77
2022/12/09 08:13:58;;;;;;;21.48;13.62;;;;;;;-4.51;95.13;98955.87;1692658;82;21012;-77
2022/12/09 08:16:26;;;;;;;21.97;12.23;;;;;;;-4.41;95.23;98956.31;1694196;82;21462;-77
2022/12/09 08:18:54;;;;;;;20.75;11.80;;;;;;;-4.32;95.10;98956.30;1692732;82;21619;-77
2022/12/09 08:21:28;;;;;;;13.93;9.80;;;;;;;-4.25;95.16;98960.16;1693800;82;21048;-76
2022/12/09 08:24:00;;;;;;;14.15;8.63;;;;;;;-4.13;95.35;98962.69;1693956;82;21049;-77
2022/12/09 08:26:30;;;;;;;13.20;8.93;;;;;;;-4.11;95.08;98966.09;1694730;82;21068;-76
2022/12/09 08:28:56;;;;;;;15.00;9.35;;;;;;;-3.99;95.45;98963.53;1708382;82;21048;-77
2022/12/09 08:31:24;;;;;;;14.20;9.13;;;;;;;-3.87;95.39;98967.33;1706553;82;21572;-77
2022/12/09 08:33:52;;;;;;;15.88;9.90;;;;;;;-3.75;95.68;98970.71;1703645;82;20969;-76
2022/12/09 08:36:22;;;;;;;13.20;8.98;;;;;;;-3.74;95.09;98968.60;1711254;82;21022;-76
2022/12/09 08:38:49;;;;;;;15.80;10.72;;;;;;;-3.81;94.77;98966.47;1705488;82;20975;-76
2022/12/09 08:41:35;;;;;;;16.87;10.28;;;;;;;-3.84;94.77;98972.45;1703426;82;21017;-76
2022/12/09 08:43:56;;;;;;;17.45;10.88;;;;;;;-3.82;94.76;98982.20;1693288;82;21036;-76
2022/12/09 08:46:23;;;;;;;20.55;11.30;;;;;;;-3.74;95.12;98974.98;1705047;82;20989;-76
2022/12/09 08:48:50;;;;;;;20.75;11.63;;;;;;;-3.55;95.57;98980.47;1693454;82;20978;-76
2022/12/09 08:51:17;;;;;;;20.72;12.05;;;;;;;-3.39;95.80;98984.69;1705751;82;21082;-76
2022/12/09 08:53:44;;;;;;;63.08;48.87;;;;;;;-3.30;95.57;98979.13;1708713;82;20970;-76
2022/12/09 08:56:13;;;;;;;35.33;25.23;;;;;;;-3.19;95.75;98976.11;1695005;82;21515;-76
2022/12/09 08:58:40;;;;;;;24.82;15.88;;;;;;;-3.07;95.81;98981.16;1695308;83;21006;-76
2022/12/09 09:01:17;;;;;;;19.30;12.58;;;;;;;-3.04;95.44;98973.48;1700390;82;20961;-76
2022/12/09 09:03:45;;;;;;;19.98;12.23;;;;;;;-3.14;95.01;98979.47;1698690;82;20998;-76
2022/12/09 09:06:12;;;;;;;16.77;11.00;;;;;;;-3.06;95.32;98977.73;1701355;82;20935;-77
2022/12/09 09:08:39;;;;;;;19.90;11.70;;;;;;;-2.96;95.64;98979.41;1692514;82;20970;-77
2022/12/09 09:11:10;;;;;;;;;;;;;;;-2.90;95.47;98973.42;1705825;82;21024;-77
2022/12/09 09:13:42;;;;;;;19.25;11.88;;;;;;;-2.75;95.80;98973.32;1698593;82;20224;-77
2022/12/09 09:16:14;;;;;;;24.85;12.82;;;;;;;-2.73;95.63;98979.72;1694698;82;20946;-77
2022/12/09 09:18:41;;;;;;;20.20;11.68;;;;;;;-2.72;95.50;98982.67;1700242;82;21607;-76
2022/12/09 09:21:11;;;;;;;;;;;;;;;-2.75;95.11;98990.36;1696830;82;21603;-76
2022/12/09 09:23:37;;;;;;;19.57;12.13;;;;;;;-2.68;95.66;98993.75;1683549;83;20283;-76
2022/12/09 09:26:04;;;;;;;23.35;13.70;;;;;;;-2.54;95.74;98997.92;1686562;83;21137;-76
2022/12/09 09:28:32;;;;;;;28.57;13.47;;;;;;;-2.49;95.79;98991.08;1696173;83;21520;-76
2022/12/09 09:31:04;;;;;;;22.17;13.25;;;;;;;-2.32;96.08;98985.00;1687622;82;20974;-76
2022/12/09 09:33:31;;;;;;;28.95;16.90;;;;;;;-2.19;96.37;98981.47;1688233;83;20999;-76
2022/12/09 09:36:00;;;;;;;17.60;11.53;;;;;;;-2.09;96.26;98976.72;1710636;83;21644;-76
2022/12/09 09:38:28;;;;;;;22.30;14.05;;;;;;;-2.08;95.99;98975.84;1718674;82;20971;-77
2022/12/09 09:40:55;;;;;;;25.45;14.70;;;;;;;-2.00;96.14;98973.66;1713236;83;22076;-77
2022/12/09 09:43:35;;;;;;;23.02;14.53;;;;;;;-1.95;96.31;98965.09;1661662;84;20977;-77
2022/12/09 09:46:04;;;;;;;22.85;13.72;;;;;;;-1.91;96.08;98965.90;1667759;86;21034;-76
2022/12/09 09:48:34;;;;;;;24.63;14.50;;;;;;;-1.77;96.16;98958.09;1645986;87;20993;-76
2022/12/09 09:51:17;;;;;;;22.15;13.03;;;;;;;-1.69;95.92;98957.16;1668888;86;21115;-77
2022/12/09 09:53:48;;;;;;;27.67;15.03;;;;;;;-1.65;94.95;98961.39;1662282;86;21536;-77
2022/12/09 09:56:26;;;;;;;20.57;13.00;;;;;;;-1.99;95.16;98954.88;1670400;86;21537;-77
2022/12/09 09:59:24;;;;;;;21.27;12.68;;;;;;;-2.05;95.40;98956.63;1670237;86;20982;-77
2022/12/09 10:02:08;;;;;;;22.17;13.13;;;;;;;-2.12;95.23;98966.52;1663236;84;20967;-77
2022/12/09 10:05:05;;;;;;;20.68;12.98;;;;;;;-2.12;95.54;98966.52;1684449;83;21076;-77
2022/12/09 10:07:51;;;;;;;16.90;11.97;;;;;;;-2.05;95.76;98969.42;1715849;82;21066;-77
2022/12/09 10:10:42;;;;;;;22.32;14.07;;;;;;;-2.03;95.72;98963.87;1716442;83;21029;-77
2022/12/09 10:13:56;;;;;;;19.98;13.83;;;;;;;-2.06;95.59;98958.78;1702915;82;21531;-77
2022/12/09 10:16:34;;;;;;;26.25;17.05;;;;;;;-2.03;95.61;98957.91;1667932;86;21663;-77
2022/12/09 10:19:11;;;;;;;31.07;17.65;;;;;;;-1.94;95.79;98963.38;1669184;86;21049;-77
2022/12/09 10:21:42;;;;;;;31.97;20.32;;;;;;;-1.94;95.53;98965.93;1666495;84;21093;-77
2022/12/09 10:24:18;;;;;;;25.62;15.32;;;;;;;-1.67;95.26;98959.71;1670424;84;21013;-76
2022/12/09 10:26:55;;;;;;;;;;;;;;;-1.40;95.18;98958.55;1670530;84;21022;-76
2022/12/09 10:29:36;;;;;;;40.33;21.90;;;;;;;-1.33;94.51;98957.63;1668306;84;20161;-77
2022/12/09 10:32:02;;;;;;;37.15;23.62;;;;;;;-1.38;94.07;98956.83;1662074;85;21671;-76
2022/12/09 10:34:29;;;;;;;38.48;26.50;;;;;;;-1.41;93.88;98964.55;1674336;85;21010;-76
2022/12/09 10:36:56;;;;;;;31.35;19.50;;;;;;;-1.50;93.49;98962.09;1672132;85;21098;-76
2022/12/09 10:39:23;;;;;;;33.83;20.75;;;;;;;-1.51;93.66;98968.06;1675728;85;21061;-77
2022/12/09 10:44:42;;;;;;;48.35;31.50;;;;;;;-1.43;93.94;98968.83;1658580;85;21648;-77
2022/12/09 10:47:26;;;;;;;37.48;24.35;;;;;;;-1.26;94.40;98966.08;1667942;84;21525;-76
2022/12/09 10:49:55;;;;;;;23.50;14.83;;;;;;;-1.19;94.01;98960.88;1690013;82;21596;-76
2022/12/09 10:52:29;;;;;;;23.07;15.23;;;;;;;-1.13;94.15;98968.48;1721399;82;21576;-76
2022/12/09 10:54:57;;;;;;;19.25;12.80;;;;;;;-1.14;93.97;98974.48;1708481;82;21140;-76
2022/12/09 10:57:28;;;;;;;22.37;14.28;;;;;;;-1.27;93.45;98972.08;1711665;82;21580;-76
2022/12/09 11:00:04;;;;;;;23.85;13.98;;;;;;;-1.36;93.36;98974.31;1708948;82;21025;-76
2022/12/09 11:02:32;;;;;;;25.37;14.03;;;;;;;-1.59;94.22;98979.25;1728527;82;21053;-76
2022/12/09 11:05:28;;;;;;;23.75;14.95;;;;;;;-1.69;94.41;98976.34;1718945;82;20963;-76
2022/12/09 11:07:57;;;;;;;22.22;14.95;;;;;;;-1.56;93.73;98974.97;1714080;82;21022;-76
2022/12/09 11:10:27;;;;;;;31.93;22.40;;;;;;;-1.60;93.32;98982.68;1722284;82;21065;-76
2022/12/09 11:13:02;;;;;;;34.00;23.40;;;;;;;-1.68;93.02;98974.23;1723189;82;21048;-76
2022/12/09 11:15:44;;;;;;;31.33;21.23;;;;;;;-1.78;92.88;98972.61;1702761;82;21017;-76
2022/12/09 11:18:22;;;;;;;26.23;16.52;;;;;;;-2.04;92.11;98974.97;1709045;82;21430;-76
2022/12/09 11:21:05;;;;;;;34.50;27.10;;;;;;;-2.39;91.68;98971.83;1711091;82;21002;-76
2022/12/09 11:23:34;;;;;;;30.52;20.55;;;;;;;-2.71;91.55;98977.58;1707085;83;21540;-76
2022/12/09 11:26:06;;;;;;;24.90;18.30;;;;;;;-3.02;91.38;98979.44;1713284;82;21436;-76
2022/12/09 11:28:36;;;;;;;28.90;18.25;;;;;;;-3.26;91.43;98976.55;1697399;83;21020;-76
2022/12/09 11:31:17;;;;;;;23.52;15.05;;;;;;;-3.49;91.42;98975.34;1718631;82;21883;-76
2022/12/09 11:33:57;;;;;;;20.08;13.35;;;;;;;-3.62;91.63;98977.50;1707395;82;21001;-76
2022/12/09 11:36:30;;;;;;;23.75;15.28;;;;;;;-3.71;91.86;98982.63;1713558;83;21196;-76
2022/12/09 11:39:23;;;;;;;25.37;17.45;;;;;;;-3.76;92.07;98980.50;1709724;82;21006;-76
2022/12/09 11:42:13;;;;;;;31.37;20.15;;;;;;;-3.88;92.02;98988.59;1714593;83;21021;-75